sensor_id;sensor_type;location;lat;lon;timestamp;temperature;humidity
1405;DHT22;697;51.114;6.542;2023-07-08T00:00:14;24.00;55.50
1405;DHT22;697;51.114;6.542;2023-07-08T00:02:42;24.00;55.70
1405;DHT22;697;51.114;6.542;2023-07-08T00:05:10;24.10;56.10
1405;DHT22;697;51.114;6.542;2023-07-08T00:07:37;24.10;56.00
1405;DHT22;697;51.114;6.542;2023-07-08T00:10:13;24.10;56.40
1405;DHT22;697;51.114;6.542;2023-07-08T00:12:40;24.10;56.50
1405;DHT22;697;51.114;6.542;2023-07-08T00:15:08;24.10;56.50
1405;DHT22;697;51.114;6.542;2023-07-08T00:17:35;24.10;56.50
1405;DHT22;697;51.114;6.542;2023-07-08T00:20:04;24.10;56.50
1405;DHT22;697;51.114;6.542;2023-07-08T00:22:35;24.10;56.60
1405;DHT22;697;51.114;6.542;2023-07-08T00:25:06;24.10;56.70
1405;DHT22;697;51.114;6.542;2023-07-08T00:27:35;24.00;56.60
1405;DHT22;697;51.114;6.542;2023-07-08T00:30:04;24.00;56.60
1405;DHT22;697;51.114;6.542;2023-07-08T00:32:35;24.00;57.00
1405;DHT22;697;51.114;6.542;2023-07-08T00:35:07;24.00;56.90
1405;DHT22;697;51.114;6.542;2023-07-08T00:37:34;24.00;57.10
1405;DHT22;697;51.114;6.542;2023-07-08T00:40:00;23.90;57.10
1405;DHT22;697;51.114;6.542;2023-07-08T00:42:29;23.90;57.40
1405;DHT22;697;51.114;6.542;2023-07-08T00:44:58;23.90;57.80
1405;DHT22;697;51.114;6.542;2023-07-08T00:47:25;23.90;58.20
1405;DHT22;697;51.114;6.542;2023-07-08T00:49:55;23.80;58.50
1405;DHT22;697;51.114;6.542;2023-07-08T00:52:25;23.80;58.30
1405;DHT22;697;51.114;6.542;2023-07-08T00:54:53;23.80;58.80
1405;DHT22;697;51.114;6.542;2023-07-08T00:57:22;23.80;58.80
1405;DHT22;697;51.114;6.542;2023-07-08T00:59:53;23.80;59.10
1405;DHT22;697;51.114;6.542;2023-07-08T01:02:25;23.70;59.60
1405;DHT22;697;51.114;6.542;2023-07-08T01:04:56;23.70;59.90
1405;DHT22;697;51.114;6.542;2023-07-08T01:07:25;23.70;59.90
1405;DHT22;697;51.114;6.542;2023-07-08T01:09:55;23.70;60.60
1405;DHT22;697;51.114;6.542;2023-07-08T01:12:33;23.70;60.70
1405;DHT22;697;51.114;6.542;2023-07-08T01:15:02;23.70;60.60
1405;DHT22;697;51.114;6.542;2023-07-08T01:17:30;23.60;60.80
1405;DHT22;697;51.114;6.542;2023-07-08T01:19:59;23.60;60.90
1405;DHT22;697;51.114;6.542;2023-07-08T01:22:27;23.60;61.70
1405;DHT22;697;51.114;6.542;2023-07-08T01:24:58;23.60;62.00
1405;DHT22;697;51.114;6.542;2023-07-08T01:27:30;23.50;61.70
1405;DHT22;697;51.114;6.542;2023-07-08T01:29:58;23.60;61.80
1405;DHT22;697;51.114;6.542;2023-07-08T01:32:26;23.60;61.90
1405;DHT22;697;51.114;6.542;2023-07-08T01:35:00;23.60;61.70
1405;DHT22;697;51.114;6.542;2023-07-08T01:37:34;23.60;61.70
1405;DHT22;697;51.114;6.542;2023-07-08T01:40:15;23.60;61.40
1405;DHT22;697;51.114;6.542;2023-07-08T01:42:42;23.60;61.30
1405;DHT22;697;51.114;6.542;2023-07-08T01:45:11;23.50;61.30
1405;DHT22;697;51.114;6.542;2023-07-08T01:47:37;23.50;62.00
1405;DHT22;697;51.114;6.542;2023-07-08T01:50:07;23.50;61.30
1405;DHT22;697;51.114;6.542;2023-07-08T01:52:36;23.50;61.80
1405;DHT22;697;51.114;6.542;2023-07-08T01:55:03;23.50;62.10
1405;DHT22;697;51.114;6.542;2023-07-08T01:57:30;23.40;62.10
1405;DHT22;697;51.114;6.542;2023-07-08T01:59:56;23.40;62.10
1405;DHT22;697;51.114;6.542;2023-07-08T02:02:23;23.30;62.60
1405;DHT22;697;51.114;6.542;2023-07-08T02:04:50;23.30;63.70
1405;DHT22;697;51.114;6.542;2023-07-08T02:07:17;23.20;64.50
1405;DHT22;697;51.114;6.542;2023-07-08T02:09:45;23.20;65.00
1405;DHT22;697;51.114;6.542;2023-07-08T02:12:12;23.20;65.50
1405;DHT22;697;51.114;6.542;2023-07-08T02:14:38;23.10;65.70
1405;DHT22;697;51.114;6.542;2023-07-08T02:17:05;23.10;66.00
1405;DHT22;697;51.114;6.542;2023-07-08T02:19:32;23.10;66.30
1405;DHT22;697;51.114;6.542;2023-07-08T02:21:58;23.10;66.80
1405;DHT22;697;51.114;6.542;2023-07-08T02:24:25;23.10;66.80
1405;DHT22;697;51.114;6.542;2023-07-08T02:26:53;23.00;66.40
1405;DHT22;697;51.114;6.542;2023-07-08T02:29:20;23.00;67.10
1405;DHT22;697;51.114;6.542;2023-07-08T02:31:47;22.90;67.30
1405;DHT22;697;51.114;6.542;2023-07-08T02:34:13;22.90;67.80
1405;DHT22;697;51.114;6.542;2023-07-08T02:36:40;22.90;68.10
1405;DHT22;697;51.114;6.542;2023-07-08T02:39:07;22.80;68.30
1405;DHT22;697;51.114;6.542;2023-07-08T02:41:34;22.80;68.40
1405;DHT22;697;51.114;6.542;2023-07-08T02:44:02;22.70;68.60
1405;DHT22;697;51.114;6.542;2023-07-08T02:46:29;22.70;68.70
1405;DHT22;697;51.114;6.542;2023-07-08T02:48:55;22.70;69.00
1405;DHT22;697;51.114;6.542;2023-07-08T02:51:22;22.60;69.50
1405;DHT22;697;51.114;6.542;2023-07-08T02:53:49;22.50;69.70
1405;DHT22;697;51.114;6.542;2023-07-08T02:56:16;22.50;70.10
1405;DHT22;697;51.114;6.542;2023-07-08T02:58:43;22.40;70.20
1405;DHT22;697;51.114;6.542;2023-07-08T03:01:11;22.40;70.50
1405;DHT22;697;51.114;6.542;2023-07-08T03:03:42;22.30;70.80
1405;DHT22;697;51.114;6.542;2023-07-08T03:06:10;22.30;70.60
1405;DHT22;697;51.114;6.542;2023-07-08T03:08:37;22.30;71.10
1405;DHT22;697;51.114;6.542;2023-07-08T03:11:05;22.20;71.40
1405;DHT22;697;51.114;6.542;2023-07-08T03:13:33;22.20;71.40
1405;DHT22;697;51.114;6.542;2023-07-08T03:16:01;22.10;71.40
1405;DHT22;697;51.114;6.542;2023-07-08T03:18:29;22.10;71.60
1405;DHT22;697;51.114;6.542;2023-07-08T03:20:57;22.10;72.00
1405;DHT22;697;51.114;6.542;2023-07-08T03:23:25;22.10;71.90
1405;DHT22;697;51.114;6.542;2023-07-08T03:25:52;22.10;72.20
1405;DHT22;697;51.114;6.542;2023-07-08T03:28:18;22.10;72.50
1405;DHT22;697;51.114;6.542;2023-07-08T03:30:51;22.00;72.60
1405;DHT22;697;51.114;6.542;2023-07-08T03:33:18;22.00;72.70
1405;DHT22;697;51.114;6.542;2023-07-08T03:35:46;22.00;72.60
1405;DHT22;697;51.114;6.542;2023-07-08T03:38:13;22.00;72.50
1405;DHT22;697;51.114;6.542;2023-07-08T03:40:40;22.00;72.10
1405;DHT22;697;51.114;6.542;2023-07-08T03:43:06;21.90;71.80
1405;DHT22;697;51.114;6.542;2023-07-08T03:45:33;21.90;71.70
1405;DHT22;697;51.114;6.542;2023-07-08T03:48:00;22.00;71.00
1405;DHT22;697;51.114;6.542;2023-07-08T03:50:27;21.90;69.90
1405;DHT22;697;51.114;6.542;2023-07-08T03:52:55;21.90;69.70
1405;DHT22;697;51.114;6.542;2023-07-08T03:55:23;21.90;69.40
1405;DHT22;697;51.114;6.542;2023-07-08T03:57:49;21.90;68.70
1405;DHT22;697;51.114;6.542;2023-07-08T04:00:17;21.90;68.40
1405;DHT22;697;51.114;6.542;2023-07-08T04:02:44;21.90;68.40
1405;DHT22;697;51.114;6.542;2023-07-08T04:05:13;22.00;68.10
1405;DHT22;697;51.114;6.542;2023-07-08T04:07:39;21.90;67.70
1405;DHT22;697;51.114;6.542;2023-07-08T04:10:09;21.90;67.20
1405;DHT22;697;51.114;6.542;2023-07-08T04:12:36;21.90;67.00
1405;DHT22;697;51.114;6.542;2023-07-08T04:15:03;21.90;67.30
1405;DHT22;697;51.114;6.542;2023-07-08T04:17:30;22.00;67.90
1405;DHT22;697;51.114;6.542;2023-07-08T04:19:57;21.90;68.40
1405;DHT22;697;51.114;6.542;2023-07-08T04:22:23;21.90;68.20
1405;DHT22;697;51.114;6.542;2023-07-08T04:24:50;21.90;67.30
1405;DHT22;697;51.114;6.542;2023-07-08T04:27:18;21.90;67.00
1405;DHT22;697;51.114;6.542;2023-07-08T04:29:45;21.90;67.30
1405;DHT22;697;51.114;6.542;2023-07-08T04:32:11;22.00;67.50
1405;DHT22;697;51.114;6.542;2023-07-08T04:34:38;22.00;67.50
1405;DHT22;697;51.114;6.542;2023-07-08T04:37:05;22.00;67.70
1405;DHT22;697;51.114;6.542;2023-07-08T04:39:32;22.00;67.80
1405;DHT22;697;51.114;6.542;2023-07-08T04:41:58;22.10;67.80
1405;DHT22;697;51.114;6.542;2023-07-08T04:44:26;22.10;67.60
1405;DHT22;697;51.114;6.542;2023-07-08T04:46:55;22.10;67.80
1405;DHT22;697;51.114;6.542;2023-07-08T04:49:23;22.10;68.00
1405;DHT22;697;51.114;6.542;2023-07-08T04:51:57;22.10;68.10
1405;DHT22;697;51.114;6.542;2023-07-08T04:54:24;22.10;67.60
1405;DHT22;697;51.114;6.542;2023-07-08T04:56:51;22.10;67.80
1405;DHT22;697;51.114;6.542;2023-07-08T04:59:21;22.10;67.80
1405;DHT22;697;51.114;6.542;2023-07-08T05:01:50;22.10;67.70
1405;DHT22;697;51.114;6.542;2023-07-08T05:04:19;22.20;67.40
1405;DHT22;697;51.114;6.542;2023-07-08T05:06:46;22.20;66.60
1405;DHT22;697;51.114;6.542;2023-07-08T05:09:13;22.20;66.90
1405;DHT22;697;51.114;6.542;2023-07-08T05:11:40;22.20;66.30
1405;DHT22;697;51.114;6.542;2023-07-08T05:14:07;22.30;65.20
1405;DHT22;697;51.114;6.542;2023-07-08T05:16:35;22.30;64.00
1405;DHT22;697;51.114;6.542;2023-07-08T05:19:03;22.40;61.50
1405;DHT22;697;51.114;6.542;2023-07-08T05:21:30;22.50;59.90
1405;DHT22;697;51.114;6.542;2023-07-08T05:23:59;22.60;59.50
1405;DHT22;697;51.114;6.542;2023-07-08T05:26:25;22.60;59.20
1405;DHT22;697;51.114;6.542;2023-07-08T05:28:52;22.70;58.30
1405;DHT22;697;51.114;6.542;2023-07-08T05:31:19;22.80;57.70
1405;DHT22;697;51.114;6.542;2023-07-08T05:33:45;22.90;56.50
1405;DHT22;697;51.114;6.542;2023-07-08T05:36:13;23.00;56.10
1405;DHT22;697;51.114;6.542;2023-07-08T05:38:40;23.00;55.70
1405;DHT22;697;51.114;6.542;2023-07-08T05:41:07;23.10;56.10
1405;DHT22;697;51.114;6.542;2023-07-08T05:43:34;23.10;56.10
1405;DHT22;697;51.114;6.542;2023-07-08T05:46:01;23.20;56.20
1405;DHT22;697;51.114;6.542;2023-07-08T05:48:28;23.40;55.00
1405;DHT22;697;51.114;6.542;2023-07-08T05:50:55;23.50;53.50
1405;DHT22;697;51.114;6.542;2023-07-08T05:53:23;23.60;53.50
1405;DHT22;697;51.114;6.542;2023-07-08T05:55:50;23.80;53.70
1405;DHT22;697;51.114;6.542;2023-07-08T05:58:17;23.90;52.30
1405;DHT22;697;51.114;6.542;2023-07-08T06:00:44;24.00;51.90
1405;DHT22;697;51.114;6.542;2023-07-08T06:03:11;24.10;51.60
1405;DHT22;697;51.114;6.542;2023-07-08T06:05:38;24.30;51.60
1405;DHT22;697;51.114;6.542;2023-07-08T06:08:06;24.40;51.90
1405;DHT22;697;51.114;6.542;2023-07-08T06:10:40;24.60;51.80
1405;DHT22;697;51.114;6.542;2023-07-08T06:13:07;24.80;51.60
1405;DHT22;697;51.114;6.542;2023-07-08T06:15:34;24.90;51.30
1405;DHT22;697;51.114;6.542;2023-07-08T06:18:01;25.00;49.90
1405;DHT22;697;51.114;6.542;2023-07-08T06:20:28;25.20;49.60
1405;DHT22;697;51.114;6.542;2023-07-08T06:22:55;25.30;49.30
1405;DHT22;697;51.114;6.542;2023-07-08T06:25:22;25.40;49.10
1405;DHT22;697;51.114;6.542;2023-07-08T06:27:50;25.50;49.00
1405;DHT22;697;51.114;6.542;2023-07-08T06:30:17;25.60;48.30
1405;DHT22;697;51.114;6.542;2023-07-08T06:32:43;25.60;47.50
1405;DHT22;697;51.114;6.542;2023-07-08T06:35:10;25.60;47.90
1405;DHT22;697;51.114;6.542;2023-07-08T06:37:37;25.70;48.00
1405;DHT22;697;51.114;6.542;2023-07-08T06:40:04;25.80;47.70
1405;DHT22;697;51.114;6.542;2023-07-08T06:42:31;25.90;48.00
1405;DHT22;697;51.114;6.542;2023-07-08T06:44:59;25.90;48.00
1405;DHT22;697;51.114;6.542;2023-07-08T06:47:26;26.10;47.80
1405;DHT22;697;51.114;6.542;2023-07-08T06:49:53;26.20;47.00
1405;DHT22;697;51.114;6.542;2023-07-08T06:52:19;26.30;47.10
1405;DHT22;697;51.114;6.542;2023-07-08T06:54:46;26.40;47.00
1405;DHT22;697;51.114;6.542;2023-07-08T06:57:13;26.60;46.90
1405;DHT22;697;51.114;6.542;2023-07-08T06:59:39;26.70;46.70
1405;DHT22;697;51.114;6.542;2023-07-08T07:02:08;26.80;46.50
1405;DHT22;697;51.114;6.542;2023-07-08T07:04:35;26.90;45.70
1405;DHT22;697;51.114;6.542;2023-07-08T07:07:01;27.10;45.30
1405;DHT22;697;51.114;6.542;2023-07-08T07:09:28;27.20;45.50
1405;DHT22;697;51.114;6.542;2023-07-08T07:11:55;27.30;45.20
1405;DHT22;697;51.114;6.542;2023-07-08T07:14:21;27.50;45.10
1405;DHT22;697;51.114;6.542;2023-07-08T07:16:48;27.60;44.70
1405;DHT22;697;51.114;6.542;2023-07-08T07:19:16;27.70;44.20
1405;DHT22;697;51.114;6.542;2023-07-08T07:21:43;27.80;44.00
1405;DHT22;697;51.114;6.542;2023-07-08T07:24:09;28.00;43.50
1405;DHT22;697;51.114;6.542;2023-07-08T07:26:37;28.10;43.10
1405;DHT22;697;51.114;6.542;2023-07-08T07:29:04;28.20;42.50
1405;DHT22;697;51.114;6.542;2023-07-08T07:31:31;28.40;42.60
1405;DHT22;697;51.114;6.542;2023-07-08T07:33:58;28.50;41.90
1405;DHT22;697;51.114;6.542;2023-07-08T07:36:27;28.60;41.70
1405;DHT22;697;51.114;6.542;2023-07-08T07:38:54;28.80;41.40
1405;DHT22;697;51.114;6.542;2023-07-08T07:41:21;28.90;41.20
1405;DHT22;697;51.114;6.542;2023-07-08T07:43:48;29.00;40.70
1405;DHT22;697;51.114;6.542;2023-07-08T07:46:15;29.10;39.10
1405;DHT22;697;51.114;6.542;2023-07-08T07:48:42;29.00;40.10
1405;DHT22;697;51.114;6.542;2023-07-08T07:51:09;29.00;38.60
1405;DHT22;697;51.114;6.542;2023-07-08T07:53:37;29.00;38.80
1405;DHT22;697;51.114;6.542;2023-07-08T07:56:05;29.10;39.10
1405;DHT22;697;51.114;6.542;2023-07-08T07:58:32;29.20;38.80
1405;DHT22;697;51.114;6.542;2023-07-08T08:00:59;29.40;38.70
1405;DHT22;697;51.114;6.542;2023-07-08T08:03:26;29.60;38.50
1405;DHT22;697;51.114;6.542;2023-07-08T08:05:53;29.80;38.10
1405;DHT22;697;51.114;6.542;2023-07-08T08:08:20;29.80;38.10
1405;DHT22;697;51.114;6.542;2023-07-08T08:10:49;29.90;37.30
1405;DHT22;697;51.114;6.542;2023-07-08T08:13:15;29.80;37.40
1405;DHT22;697;51.114;6.542;2023-07-08T08:15:42;30.00;37.10
1405;DHT22;697;51.114;6.542;2023-07-08T08:18:09;30.20;37.00
1405;DHT22;697;51.114;6.542;2023-07-08T08:20:36;30.40;36.80
1405;DHT22;697;51.114;6.542;2023-07-08T08:23:02;30.70;37.10
1405;DHT22;697;51.114;6.542;2023-07-08T08:25:29;30.90;36.90
1405;DHT22;697;51.114;6.542;2023-07-08T08:27:57;31.20;36.60
1405;DHT22;697;51.114;6.542;2023-07-08T08:30:24;31.50;35.40
1405;DHT22;697;51.114;6.542;2023-07-08T08:32:50;31.80;35.60
1405;DHT22;697;51.114;6.542;2023-07-08T08:35:17;32.10;34.50
1405;DHT22;697;51.114;6.542;2023-07-08T08:37:44;32.20;33.50
1405;DHT22;697;51.114;6.542;2023-07-08T08:40:13;32.20;34.00
1405;DHT22;697;51.114;6.542;2023-07-08T08:42:43;32.30;33.10
1405;DHT22;697;51.114;6.542;2023-07-08T08:45:16;32.30;33.80
1405;DHT22;697;51.114;6.542;2023-07-08T08:47:48;32.50;34.20
1405;DHT22;697;51.114;6.542;2023-07-08T08:50:29;32.70;33.00
1405;DHT22;697;51.114;6.542;2023-07-08T08:52:59;32.90;33.40
1405;DHT22;697;51.114;6.542;2023-07-08T08:55:26;33.00;32.80
1405;DHT22;697;51.114;6.542;2023-07-08T08:57:59;33.20;31.60
1405;DHT22;697;51.114;6.542;2023-07-08T09:00:34;33.40;31.50
1405;DHT22;697;51.114;6.542;2023-07-08T09:03:08;33.70;32.70
1405;DHT22;697;51.114;6.542;2023-07-08T09:05:35;33.90;30.40
1405;DHT22;697;51.114;6.542;2023-07-08T09:08:12;34.10;30.90
1405;DHT22;697;51.114;6.542;2023-07-08T09:10:44;34.50;30.60
1405;DHT22;697;51.114;6.542;2023-07-08T09:13:17;34.80;30.40
1405;DHT22;697;51.114;6.542;2023-07-08T09:15:48;35.00;28.60
1405;DHT22;697;51.114;6.542;2023-07-08T09:18:19;35.20;27.80
1405;DHT22;697;51.114;6.542;2023-07-08T09:20:47;35.20;27.80
1405;DHT22;697;51.114;6.542;2023-07-08T09:23:18;35.20;28.20
1405;DHT22;697;51.114;6.542;2023-07-08T09:25:51;35.30;28.30
1405;DHT22;697;51.114;6.542;2023-07-08T09:28:20;35.30;28.40
1405;DHT22;697;51.114;6.542;2023-07-08T09:30:52;35.40;28.30
1405;DHT22;697;51.114;6.542;2023-07-08T09:33:20;35.70;29.20
1405;DHT22;697;51.114;6.542;2023-07-08T09:35:47;36.00;29.70
1405;DHT22;697;51.114;6.542;2023-07-08T09:38:16;36.30;28.60
1405;DHT22;697;51.114;6.542;2023-07-08T09:40:47;36.60;26.50
1405;DHT22;697;51.114;6.542;2023-07-08T09:43:23;36.50;26.20
1405;DHT22;697;51.114;6.542;2023-07-08T09:45:57;36.40;26.10
1405;DHT22;697;51.114;6.542;2023-07-08T09:48:25;36.50;26.80
1405;DHT22;697;51.114;6.542;2023-07-08T09:50:54;36.60;27.50
1405;DHT22;697;51.114;6.542;2023-07-08T09:53:21;36.90;27.00
1405;DHT22;697;51.114;6.542;2023-07-08T09:55:50;37.30;27.10
1405;DHT22;697;51.114;6.542;2023-07-08T09:58:21;37.60;26.20
1405;DHT22;697;51.114;6.542;2023-07-08T10:00:53;38.00;26.00
1405;DHT22;697;51.114;6.542;2023-07-08T10:03:22;38.30;25.80
1405;DHT22;697;51.114;6.542;2023-07-08T10:05:49;38.70;26.00
1405;DHT22;697;51.114;6.542;2023-07-08T10:08:21;39.10;26.10
1405;DHT22;697;51.114;6.542;2023-07-08T10:10:50;39.40;26.10
1405;DHT22;697;51.114;6.542;2023-07-08T10:13:23;39.80;24.80
1405;DHT22;697;51.114;6.542;2023-07-08T10:15:55;40.10;23.30
1405;DHT22;697;51.114;6.542;2023-07-08T10:18:26;40.10;22.20
1405;DHT22;697;51.114;6.542;2023-07-08T10:21:00;40.20;22.00
1405;DHT22;697;51.114;6.542;2023-07-08T10:23:37;40.40;22.90
1405;DHT22;697;51.114;6.542;2023-07-08T10:26:12;40.60;20.70
1405;DHT22;697;51.114;6.542;2023-07-08T10:28:45;40.50;21.40
1405;DHT22;697;51.114;6.542;2023-07-08T10:31:25;40.50;22.00
1405;DHT22;697;51.114;6.542;2023-07-08T10:34:06;40.70;22.50
1405;DHT22;697;51.114;6.542;2023-07-08T10:36:47;40.80;20.70
1405;DHT22;697;51.114;6.542;2023-07-08T10:39:34;40.80;21.00
1405;DHT22;697;51.114;6.542;2023-07-08T10:42:11;41.00;20.80
1405;DHT22;697;51.114;6.542;2023-07-08T10:44:45;41.40;21.40
1405;DHT22;697;51.114;6.542;2023-07-08T10:47:32;41.90;21.90
1405;DHT22;697;51.114;6.542;2023-07-08T10:50:16;42.70;21.30
1405;DHT22;697;51.114;6.542;2023-07-08T10:52:53;43.60;20.40
1405;DHT22;697;51.114;6.542;2023-07-08T10:55:30;44.40;20.10
1405;DHT22;697;51.114;6.542;2023-07-08T10:58:34;45.30;20.00
1405;DHT22;697;51.114;6.542;2023-07-08T11:01:07;46.00;18.20
1405;DHT22;697;51.114;6.542;2023-07-08T11:06:44;46.80;16.20
1405;DHT22;697;51.114;6.542;2023-07-08T11:09:15;47.30;16.00
1405;DHT22;697;51.114;6.542;2023-07-08T11:11:49;47.80;16.70
1405;DHT22;697;51.114;6.542;2023-07-08T11:14:20;48.30;16.50
1405;DHT22;697;51.114;6.542;2023-07-08T11:16:52;48.60;14.10
1405;DHT22;697;51.114;6.542;2023-07-08T11:19:26;48.80;15.00
1405;DHT22;697;51.114;6.542;2023-07-08T11:21:59;49.10;14.90
1405;DHT22;697;51.114;6.542;2023-07-08T11:24:32;49.40;14.10
1405;DHT22;697;51.114;6.542;2023-07-08T11:27:04;49.80;14.80
1405;DHT22;697;51.114;6.542;2023-07-08T11:29:36;50.10;14.00
1405;DHT22;697;51.114;6.542;2023-07-08T11:32:04;50.50;14.40
1405;DHT22;697;51.114;6.542;2023-07-08T11:34:34;50.90;14.40
1405;DHT22;697;51.114;6.542;2023-07-08T11:37:02;51.40;14.10
1405;DHT22;697;51.114;6.542;2023-07-08T11:39:33;51.60;14.10
1405;DHT22;697;51.114;6.542;2023-07-08T11:42:05;52.00;13.40
1405;DHT22;697;51.114;6.542;2023-07-08T11:44:42;52.20;12.20
1405;DHT22;697;51.114;6.542;2023-07-08T11:47:15;52.60;13.00
1405;DHT22;697;51.114;6.542;2023-07-08T11:49:46;52.70;12.00
1405;DHT22;697;51.114;6.542;2023-07-08T11:52:17;52.80;11.50
1405;DHT22;697;51.114;6.542;2023-07-08T11:54:46;52.90;11.60
1405;DHT22;697;51.114;6.542;2023-07-08T11:57:18;52.90;11.90
1405;DHT22;697;51.114;6.542;2023-07-08T11:59:46;52.80;11.10
1405;DHT22;697;51.114;6.542;2023-07-08T12:02:15;52.60;11.10
1405;DHT22;697;51.114;6.542;2023-07-08T12:04:57;52.70;12.10
1405;DHT22;697;51.114;6.542;2023-07-08T12:07:31;52.90;12.30
1405;DHT22;697;51.114;6.542;2023-07-08T12:10:00;53.00;12.40
1405;DHT22;697;51.114;6.542;2023-07-08T12:12:32;53.30;12.20
1405;DHT22;697;51.114;6.542;2023-07-08T12:15:08;53.60;12.10
1405;DHT22;697;51.114;6.542;2023-07-08T12:17:36;53.90;12.40
1405;DHT22;697;51.114;6.542;2023-07-08T12:20:16;54.20;12.00
1405;DHT22;697;51.114;6.542;2023-07-08T12:22:43;54.50;11.70
1405;DHT22;697;51.114;6.542;2023-07-08T12:25:13;54.70;11.80
1405;DHT22;697;51.114;6.542;2023-07-08T12:27:42;54.90;11.60
1405;DHT22;697;51.114;6.542;2023-07-08T12:30:10;55.10;11.20
1405;DHT22;697;51.114;6.542;2023-07-08T12:32:36;55.30;11.10
1405;DHT22;697;51.114;6.542;2023-07-08T12:35:08;55.60;10.90
1405;DHT22;697;51.114;6.542;2023-07-08T12:37:42;55.70;10.60
1405;DHT22;697;51.114;6.542;2023-07-08T12:40:10;55.90;10.70
1405;DHT22;697;51.114;6.542;2023-07-08T12:42:37;56.10;10.90
1405;DHT22;697;51.114;6.542;2023-07-08T12:45:13;56.20;9.40
1405;DHT22;697;51.114;6.542;2023-07-08T12:47:40;56.20;10.10
1405;DHT22;697;51.114;6.542;2023-07-08T12:50:10;56.20;9.90
1405;DHT22;697;51.114;6.542;2023-07-08T12:52:37;56.30;10.10
1405;DHT22;697;51.114;6.542;2023-07-08T12:55:04;56.40;10.20
1405;DHT22;697;51.114;6.542;2023-07-08T12:57:31;56.50;9.90
1405;DHT22;697;51.114;6.542;2023-07-08T12:59:58;56.70;9.50
1405;DHT22;697;51.114;6.542;2023-07-08T13:02:27;56.50;8.00
1405;DHT22;697;51.114;6.542;2023-07-08T13:04:58;56.40;9.50
1405;DHT22;697;51.114;6.542;2023-07-08T13:07:34;56.50;9.40
1405;DHT22;697;51.114;6.542;2023-07-08T13:10:02;56.60;9.50
1405;DHT22;697;51.114;6.542;2023-07-08T13:12:32;56.80;9.80
1405;DHT22;697;51.114;6.542;2023-07-08T13:15:01;57.20;10.00
1405;DHT22;697;51.114;6.542;2023-07-08T13:17:28;57.40;9.60
1405;DHT22;697;51.114;6.542;2023-07-08T13:19:56;57.50;9.50
1405;DHT22;697;51.114;6.542;2023-07-08T13:22:23;57.70;9.40
1405;DHT22;697;51.114;6.542;2023-07-08T13:25:00;57.90;9.90
1405;DHT22;697;51.114;6.542;2023-07-08T13:27:27;58.10;8.80
1405;DHT22;697;51.114;6.542;2023-07-08T13:29:55;58.10;9.00
1405;DHT22;697;51.114;6.542;2023-07-08T13:32:30;58.30;9.50
1405;DHT22;697;51.114;6.542;2023-07-08T13:34:57;58.30;8.20
1405;DHT22;697;51.114;6.542;2023-07-08T13:37:23;58.00;7.00
1405;DHT22;697;51.114;6.542;2023-07-08T13:39:53;57.70;8.20
1405;DHT22;697;51.114;6.542;2023-07-08T13:42:21;57.50;9.00
1405;DHT22;697;51.114;6.542;2023-07-08T13:44:49;57.50;9.80
1405;DHT22;697;51.114;6.542;2023-07-08T13:47:22;57.50;9.80
1405;DHT22;697;51.114;6.542;2023-07-08T13:49:56;57.70;9.70
1405;DHT22;697;51.114;6.542;2023-07-08T13:52:24;58.00;9.70
1405;DHT22;697;51.114;6.542;2023-07-08T13:54:52;58.10;9.20
1405;DHT22;697;51.114;6.542;2023-07-08T13:57:23;58.30;7.70
1405;DHT22;697;51.114;6.542;2023-07-08T13:59:50;58.00;7.20
1405;DHT22;697;51.114;6.542;2023-07-08T14:02:20;57.70;7.70
1405;DHT22;697;51.114;6.542;2023-07-08T14:04:48;57.70;8.50
1405;DHT22;697;51.114;6.542;2023-07-08T14:07:16;57.70;9.30
1405;DHT22;697;51.114;6.542;2023-07-08T14:09:43;57.60;8.40
1405;DHT22;697;51.114;6.542;2023-07-08T14:12:10;57.20;8.40
1405;DHT22;697;51.114;6.542;2023-07-08T14:14:39;56.50;8.80
1405;DHT22;697;51.114;6.542;2023-07-08T14:17:08;55.50;9.30
1405;DHT22;697;51.114;6.542;2023-07-08T14:19:37;54.70;9.40
1405;DHT22;697;51.114;6.542;2023-07-08T14:22:16;54.00;9.60
1405;DHT22;697;51.114;6.542;2023-07-08T14:24:45;53.60;10.60
1405;DHT22;697;51.114;6.542;2023-07-08T14:27:12;53.60;12.00
1405;DHT22;697;51.114;6.542;2023-07-08T14:29:41;53.50;12.30
1405;DHT22;697;51.114;6.542;2023-07-08T14:32:12;53.60;12.30
1405;DHT22;697;51.114;6.542;2023-07-08T14:34:40;53.90;11.90
1405;DHT22;697;51.114;6.542;2023-07-08T14:37:13;54.20;11.70
1405;DHT22;697;51.114;6.542;2023-07-08T14:39:39;54.10;12.00
1405;DHT22;697;51.114;6.542;2023-07-08T14:42:09;53.80;12.00
1405;DHT22;697;51.114;6.542;2023-07-08T14:44:37;53.50;12.40
1405;DHT22;697;51.114;6.542;2023-07-08T14:47:08;52.90;12.60
1405;DHT22;697;51.114;6.542;2023-07-08T14:49:36;52.20;12.60
1405;DHT22;697;51.114;6.542;2023-07-08T14:52:03;51.40;13.50
1405;DHT22;697;51.114;6.542;2023-07-08T14:54:29;50.60;14.00
1405;DHT22;697;51.114;6.542;2023-07-08T14:56:56;49.80;14.40
1405;DHT22;697;51.114;6.542;2023-07-08T14:59:25;49.10;14.90
1405;DHT22;697;51.114;6.542;2023-07-08T15:01:54;48.40;15.30
1405;DHT22;697;51.114;6.542;2023-07-08T15:04:22;47.90;16.10
1405;DHT22;697;51.114;6.542;2023-07-08T15:06:50;47.40;17.00
1405;DHT22;697;51.114;6.542;2023-07-08T15:09:18;47.00;17.70
1405;DHT22;697;51.114;6.542;2023-07-08T15:11:45;46.80;17.90
1405;DHT22;697;51.114;6.542;2023-07-08T15:14:19;46.80;17.80
1405;DHT22;697;51.114;6.542;2023-07-08T15:16:46;47.10;18.00
1405;DHT22;697;51.114;6.542;2023-07-08T15:19:13;47.20;17.70
1405;DHT22;697;51.114;6.542;2023-07-08T15:21:41;47.50;17.60
1405;DHT22;697;51.114;6.542;2023-07-08T15:24:09;47.80;17.40
1405;DHT22;697;51.114;6.542;2023-07-08T15:26:37;48.20;17.10
1405;DHT22;697;51.114;6.542;2023-07-08T15:29:04;48.40;16.70
1405;DHT22;697;51.114;6.542;2023-07-08T15:31:32;48.60;16.70
1405;DHT22;697;51.114;6.542;2023-07-08T15:34:00;49.00;16.20
1405;DHT22;697;51.114;6.542;2023-07-08T15:36:27;49.40;15.80
1405;DHT22;697;51.114;6.542;2023-07-08T15:38:55;49.60;15.50
1405;DHT22;697;51.114;6.542;2023-07-08T15:41:23;49.80;15.80
1405;DHT22;697;51.114;6.542;2023-07-08T15:43:52;49.60;15.20
1405;DHT22;697;51.114;6.542;2023-07-08T15:46:20;49.50;15.70
1405;DHT22;697;51.114;6.542;2023-07-08T15:48:47;49.10;15.90
1405;DHT22;697;51.114;6.542;2023-07-08T15:51:15;48.70;16.00
1405;DHT22;697;51.114;6.542;2023-07-08T15:53:42;48.30;16.40
1405;DHT22;697;51.114;6.542;2023-07-08T15:56:12;47.90;16.90
1405;DHT22;697;51.114;6.542;2023-07-08T15:58:42;47.40;17.30
1405;DHT22;697;51.114;6.542;2023-07-08T16:01:16;47.00;17.90
1405;DHT22;697;51.114;6.542;2023-07-08T16:03:45;46.40;18.70
1405;DHT22;697;51.114;6.542;2023-07-08T16:06:12;45.80;19.20
1405;DHT22;697;51.114;6.542;2023-07-08T16:08:39;45.30;19.70
1405;DHT22;697;51.114;6.542;2023-07-08T16:11:12;44.80;20.30
1405;DHT22;697;51.114;6.542;2023-07-08T16:13:40;44.40;20.70
1405;DHT22;697;51.114;6.542;2023-07-08T16:16:09;44.00;20.90
1405;DHT22;697;51.114;6.542;2023-07-08T16:18:36;43.80;21.40
1405;DHT22;697;51.114;6.542;2023-07-08T16:21:03;43.80;21.50
1405;DHT22;697;51.114;6.542;2023-07-08T16:23:30;43.80;21.60
1405;DHT22;697;51.114;6.542;2023-07-08T16:25:57;43.70;21.90
1405;DHT22;697;51.114;6.542;2023-07-08T16:28:28;43.60;22.30
1405;DHT22;697;51.114;6.542;2023-07-08T16:30:55;43.50;22.70
1405;DHT22;697;51.114;6.542;2023-07-08T16:33:23;43.50;22.90